sensor_id;sensor_type;location;lat;lon;timestamp;pressure;altitude;pressure_sealevel;temperature;humidity
62126;BME280;69591;53.282;6.150;2023-05-21T00:00:43;102292.16;;;18.22;55.71
62126;BME280;69591;53.282;6.150;2023-05-21T00:01:44;102288.25;;;18.23;55.67
62126;BME280;69591;53.282;6.150;2023-05-21T00:02:46;102289.41;;;18.22;55.54
62126;BME280;69591;53.282;6.150;2023-05-21T00:03:47;102285.53;;;18.23;55.72
62126;BME280;69591;53.282;6.150;2023-05-21T00:04:49;102288.25;;;18.23;55.56
62126;BME280;69591;53.282;6.150;2023-05-21T00:05:52;102283.94;;;18.22;55.65
62126;BME280;69591;53.282;6.150;2023-05-21T00:06:53;102289.06;;;18.23;55.78
62126;BME280;69591;53.282;6.150;2023-05-21T00:07:55;102285.53;;;18.23;55.76
62126;BME280;69591;53.282;6.150;2023-05-21T00:08:56;102287.47;;;18.22;55.63
62126;BME280;69591;53.282;6.150;2023-05-21T00:09:58;102279.25;;;18.22;55.96
62126;BME280;69591;53.282;6.150;2023-05-21T00:10:59;102284.72;;;18.22;55.62
62126;BME280;69591;53.282;6.150;2023-05-21T00:12:01;102276.78;;;18.17;55.64
62126;BME280;69591;53.282;6.150;2023-05-21T00:13:03;102284.72;;;18.22;55.76
62126;BME280;69591;53.282;6.150;2023-05-21T00:14:04;102282.00;;;18.22;55.63
62126;BME280;69591;53.282;6.150;2023-05-21T00:15:06;102280.06;;;18.23;55.84
62126;BME280;69591;53.282;6.150;2023-05-21T00:16:08;102283.16;;;18.21;55.72
62126;BME280;69591;53.282;6.150;2023-05-21T00:17:09;102279.25;;;18.22;55.83
62126;BME280;69591;53.282;6.150;2023-05-21T00:18:11;102282.78;;;18.23;55.82
62126;BME280;69591;53.282;6.150;2023-05-21T00:19:12;102278.47;;;18.22;55.76
62126;BME280;69591;53.282;6.150;2023-05-21T00:20:14;102280.06;;;18.23;55.77
62126;BME280;69591;53.282;6.150;2023-05-21T00:21:17;102273.78;;;18.22;55.73
62126;BME280;69591;53.282;6.150;2023-05-21T00:22:18;102274.59;;;18.23;55.57
62126;BME280;69591;53.282;6.150;2023-05-21T00:23:20;102279.25;;;18.22;55.84
62126;BME280;69591;53.282;6.150;2023-05-21T00:24:21;102282.78;;;18.23;55.65
62126;BME280;69591;53.282;6.150;2023-05-21T00:25:23;102275.38;;;18.23;55.83
62126;BME280;69591;53.282;6.150;2023-05-21T00:26:24;102278.13;;;18.23;55.79
62126;BME280;69591;53.282;6.150;2023-05-21T00:27:30;102269.13;;;18.23;55.53
62126;BME280;69591;53.282;6.150;2023-05-21T00:28:31;102273.78;;;18.22;55.79
62126;BME280;69591;53.282;6.150;2023-05-21T00:29:33;102280.06;;;18.23;55.66
62126;BME280;69591;53.282;6.150;2023-05-21T00:30:34;102269.13;;;18.23;55.72
62126;BME280;69591;53.282;6.150;2023-05-21T00:31:36;102280.06;;;18.23;55.87
62126;BME280;69591;53.282;6.150;2023-05-21T00:32:38;102272.66;;;18.23;55.80
62126;BME280;69591;53.282;6.150;2023-05-21T00:33:39;102274.59;;;18.23;55.63
62126;BME280;69591;53.282;6.150;2023-05-21T00:34:41;102277.31;;;18.23;55.79
62126;BME280;69591;53.282;6.150;2023-05-21T00:35:42;102278.13;;;18.23;55.83
62126;BME280;69591;53.282;6.150;2023-05-21T00:36:45;102280.84;;;18.23;55.85
62126;BME280;69591;53.282;6.150;2023-05-21T00:37:47;102275.38;;;18.23;55.64
62126;BME280;69591;53.282;6.150;2023-05-21T00:38:48;102274.59;;;18.23;55.73
62126;BME280;69591;53.282;6.150;2023-05-21T00:39:50;102269.13;;;18.23;55.75
62126;BME280;69591;53.282;6.150;2023-05-21T00:40:51;102269.94;;;18.23;55.71
62126;BME280;69591;53.282;6.150;2023-05-21T00:41:53;102271.06;;;18.22;55.75
62126;BME280;69591;53.282;6.150;2023-05-21T00:42:55;102263.66;;;18.23;55.67
62126;BME280;69591;53.282;6.150;2023-05-21T00:43:56;102269.94;;;18.23;55.84
62126;BME280;69591;53.282;6.150;2023-05-21T00:44:58;102264.47;;;18.23;55.65
62126;BME280;69591;53.282;6.150;2023-05-21T00:45:59;102264.47;;;18.23;55.81
62126;BME280;69591;53.282;6.150;2023-05-21T00:47:01;102260.91;;;18.23;55.75
62126;BME280;69591;53.282;6.150;2023-05-21T00:48:03;102259.75;;;18.24;55.74
62126;BME280;69591;53.282;6.150;2023-05-21T00:49:05;102263.66;;;18.23;55.74
62126;BME280;69591;53.282;6.150;2023-05-21T00:50:07;102259.75;;;18.24;55.70
62126;BME280;69591;53.282;6.150;2023-05-21T00:51:09;102261.72;;;18.23;55.82
62126;BME280;69591;53.282;6.150;2023-05-21T00:52:12;102258.19;;;18.23;55.73
62126;BME280;69591;53.282;6.150;2023-05-21T00:53:13;102258.19;;;18.23;55.85
62126;BME280;69591;53.282;6.150;2023-05-21T00:54:15;102256.25;;;18.23;55.84
62126;BME280;69591;53.282;6.150;2023-05-21T00:55:17;102252.72;;;18.23;55.85
62126;BME280;69591;53.282;6.150;2023-05-21T00:56:18;102249.19;;;18.22;55.87
62126;BME280;69591;53.282;6.150;2023-05-21T00:57:21;102235.50;;;18.22;55.72
62126;BME280;69591;53.282;6.150;2023-05-21T00:58:23;102245.31;;;18.23;55.83
62126;BME280;69591;53.282;6.150;2023-05-21T00:59:24;102248.06;;;18.23;55.74
62126;BME280;69591;53.282;6.150;2023-05-21T01:00:26;102235.50;;;18.22;55.88
62126;BME280;69591;53.282;6.150;2023-05-21T01:01:27;102241.78;;;18.23;55.77
62126;BME280;69591;53.282;6.150;2023-05-21T01:02:29;102237.13;;;18.23;55.81
62126;BME280;69591;53.282;6.150;2023-05-21T01:03:31;102241.78;;;18.23;55.72
62126;BME280;69591;53.282;6.150;2023-05-21T01:04:32;102247.25;;;18.23;55.85
62126;BME280;69591;53.282;6.150;2023-05-21T01:05:34;102247.25;;;18.23;55.87
62126;BME280;69591;53.282;6.150;2023-05-21T01:06:36;102247.25;;;18.23;55.94
62126;BME280;69591;53.282;6.150;2023-05-21T01:07:39;102242.59;;;18.23;55.84
62126;BME280;69591;53.282;6.150;2023-05-21T01:08:41;102258.19;;;18.23;55.72
62126;BME280;69591;53.282;6.150;2023-05-21T01:09:42;102244.53;;;18.23;55.79
62126;BME280;69591;53.282;6.150;2023-05-21T01:10:44;102248.06;;;18.23;55.84
62126;BME280;69591;53.282;6.150;2023-05-21T01:11:46;102248.06;;;18.23;55.67
62126;BME280;69591;53.282;6.150;2023-05-21T01:12:48;102243.72;;;18.22;55.93
62126;BME280;69591;53.282;6.150;2023-05-21T01:13:50;102244.53;;;18.23;55.88
62126;BME280;69591;53.282;6.150;2023-05-21T01:14:51;102243.72;;;18.22;55.91
62126;BME280;69591;53.282;6.150;2023-05-21T01:15:53;102248.06;;;18.23;55.78
62126;BME280;69591;53.282;6.150;2023-05-21T01:16:56;102237.13;;;18.23;55.79
62126;BME280;69591;53.282;6.150;2023-05-21T01:17:58;102245.31;;;18.23;55.93
62126;BME280;69591;53.282;6.150;2023-05-21T01:19:00;102243.72;;;18.22;55.93
62126;BME280;69591;53.282;6.150;2023-05-21T01:20:02;102235.50;;;18.22;55.91
62126;BME280;69591;53.282;6.150;2023-05-21T01:21:06;102235.50;;;18.22;55.99
62126;BME280;69591;53.282;6.150;2023-05-21T01:22:08;102236.31;;;18.23;56.06
62126;BME280;69591;53.282;6.150;2023-05-21T01:23:14;102234.38;;;18.23;55.95
62126;BME280;69591;53.282;6.150;2023-05-21T01:24:16;102230.84;;;18.23;55.82
62126;BME280;69591;53.282;6.150;2023-05-21T01:25:17;102230.84;;;18.23;55.92
62126;BME280;69591;53.282;6.150;2023-05-21T01:26:19;102223.81;;;18.22;55.95
62126;BME280;69591;53.282;6.150;2023-05-21T01:27:21;102230.84;;;18.23;55.87
62126;BME280;69591;53.282;6.150;2023-05-21T01:28:23;102224.56;;;18.22;55.92
62126;BME280;69591;53.282;6.150;2023-05-21T01:29:25;102230.84;;;18.23;55.74
62126;BME280;69591;53.282;6.150;2023-05-21T01:30:26;102223.44;;;18.23;55.84
62126;BME280;69591;53.282;6.150;2023-05-21T01:31:29;102228.91;;;18.23;55.69
62126;BME280;69591;53.282;6.150;2023-05-21T01:32:33;102225.38;;;18.23;55.81
62126;BME280;69591;53.282;6.150;2023-05-21T01:33:36;102224.22;;;18.24;55.79
62126;BME280;69591;53.282;6.150;2023-05-21T01:34:41;102223.44;;;18.23;55.74
62126;BME280;69591;53.282;6.150;2023-05-21T01:35:46;102220.72;;;18.23;55.98
62126;BME280;69591;53.282;6.150;2023-05-21T01:36:52;102216.38;;;18.22;56.00
62126;BME280;69591;53.282;6.150;2023-05-21T01:37:55;102223.44;;;18.23;56.11
62126;BME280;69591;53.282;6.150;2023-05-21T01:39:00;102216.38;;;18.22;55.97
62126;BME280;69591;53.282;6.150;2023-05-21T01:40:04;102221.84;;;18.22;55.97
62126;BME280;69591;53.282;6.150;2023-05-21T01:41:09;102224.56;;;18.22;55.92
62126;BME280;69591;53.282;6.150;2023-05-21T01:42:11;102219.09;;;18.22;55.91
62126;BME280;69591;53.282;6.150;2023-05-21T01:43:13;102219.91;;;18.23;55.81
62126;BME280;69591;53.282;6.150;2023-05-21T01:44:15;102216.38;;;18.22;56.00
62126;BME280;69591;53.282;6.150;2023-05-21T01:45:18;102219.09;;;18.22;55.97
62126;BME280;69591;53.282;6.150;2023-05-21T01:46:23;102219.09;;;18.22;56.06
62126;BME280;69591;53.282;6.150;2023-05-21T01:47:25;102217.19;;;18.23;55.95
62126;BME280;69591;53.282;6.150;2023-05-21T01:48:27;102213.63;;;18.22;55.91
62126;BME280;69591;53.282;6.150;2023-05-21T01:49:29;102219.91;;;18.23;56.00
62126;BME280;69591;53.282;6.150;2023-05-21T01:50:31;102219.91;;;18.23;56.02
62126;BME280;69591;53.282;6.150;2023-05-21T01:51:33;102215.25;;;18.23;55.96
62126;BME280;69591;53.282;6.150;2023-05-21T01:52:34;102219.91;;;18.23;56.00
62126;BME280;69591;53.282;6.150;2023-05-21T01:53:36;102219.91;;;18.23;56.14
62126;BME280;69591;53.282;6.150;2023-05-21T01:54:39;102216.38;;;18.22;55.95
62126;BME280;69591;53.282;6.150;2023-05-21T01:55:40;102219.09;;;18.22;55.80
62126;BME280;69591;53.282;6.150;2023-05-21T01:56:42;102224.56;;;18.22;55.88
62126;BME280;69591;53.282;6.150;2023-05-21T01:57:44;102215.25;;;18.23;56.08
62126;BME280;69591;53.282;6.150;2023-05-21T01:58:45;102219.91;;;18.23;56.14
62126;BME280;69591;53.282;6.150;2023-05-21T01:59:47;102219.09;;;18.22;55.99
62126;BME280;69591;53.282;6.150;2023-05-21T02:00:48;102221.84;;;18.22;56.09
62126;BME280;69591;53.282;6.150;2023-05-21T02:01:50;102216.38;;;18.22;55.97
62126;BME280;69591;53.282;6.150;2023-05-21T02:02:51;102216.38;;;18.22;55.94
62126;BME280;69591;53.282;6.150;2023-05-21T02:03:53;102220.72;;;18.23;55.89
62126;BME280;69591;53.282;6.150;2023-05-21T02:04:54;102224.56;;;18.22;55.93
62126;BME280;69591;53.282;6.150;2023-05-21T02:05:56;102226.94;;;18.24;55.92
62126;BME280;69591;53.282;6.150;2023-05-21T02:06:57;102219.09;;;18.22;56.13
62126;BME280;69591;53.282;6.150;2023-05-21T02:07:59;102226.19;;;18.23;56.02
62126;BME280;69591;53.282;6.150;2023-05-21T02:09:01;102224.56;;;18.22;55.94
62126;BME280;69591;53.282;6.150;2023-05-21T02:10:05;102225.38;;;18.23;55.92
62126;BME280;69591;53.282;6.150;2023-05-21T02:11:07;102219.09;;;18.22;55.86
62126;BME280;69591;53.282;6.150;2023-05-21T02:12:08;102219.91;;;18.23;56.09
62126;BME280;69591;53.282;6.150;2023-05-21T02:13:10;102217.97;;;18.23;56.11
62126;BME280;69591;53.282;6.150;2023-05-21T02:14:11;102215.25;;;18.23;56.13
62126;BME280;69591;53.282;6.150;2023-05-21T02:15:13;102212.50;;;18.23;55.88
62126;BME280;69591;53.282;6.150;2023-05-21T02:16:14;102216.38;;;18.22;55.99
62126;BME280;69591;53.282;6.150;2023-05-21T02:17:16;102211.72;;;18.23;56.07
62126;BME280;69591;53.282;6.150;2023-05-21T02:18:17;102216.38;;;18.22;55.85
62126;BME280;69591;53.282;6.150;2023-05-21T02:19:19;102211.72;;;18.23;55.94
62126;BME280;69591;53.282;6.150;2023-05-21T02:20:21;102212.06;;;18.21;55.95
62126;BME280;69591;53.282;6.150;2023-05-21T02:21:22;102208.19;;;18.22;56.20
62126;BME280;69591;53.282;6.150;2023-05-21T02:22:24;102203.50;;;18.23;56.22
62126;BME280;69591;53.282;6.150;2023-05-21T02:23:25;102209.78;;;18.23;56.25
62126;BME280;69591;53.282;6.150;2023-05-21T02:24:27;102210.91;;;18.22;56.02
62126;BME280;69591;53.282;6.150;2023-05-21T02:25:30;102212.50;;;18.23;56.13
62126;BME280;69591;53.282;6.150;2023-05-21T02:26:32;102209.78;;;18.23;56.01
62126;BME280;69591;53.282;6.150;2023-05-21T02:27:33;102208.97;;;18.23;56.12
62126;BME280;69591;53.282;6.150;2023-05-21T02:28:35;102215.25;;;18.23;56.11
62126;BME280;69591;53.282;6.150;2023-05-21T02:29:36;102213.63;;;18.22;56.00
62126;BME280;69591;53.282;6.150;2023-05-21T02:30:38;102213.63;;;18.22;56.07
62126;BME280;69591;53.282;6.150;2023-05-21T02:31:40;102215.25;;;18.23;56.18
62126;BME280;69591;53.282;6.150;2023-05-21T02:32:41;102216.00;;;18.24;56.02
62126;BME280;69591;53.282;6.150;2023-05-21T02:33:43;102217.97;;;18.23;56.15
62126;BME280;69591;53.282;6.150;2023-05-21T02:34:45;102210.91;;;18.22;56.14
62126;BME280;69591;53.282;6.150;2023-05-21T02:35:47;102214.44;;;18.23;56.02
62126;BME280;69591;53.282;6.150;2023-05-21T02:36:48;102213.63;;;18.22;56.05
62126;BME280;69591;53.282;6.150;2023-05-21T02:37:50;102209.34;;;18.21;56.05
62126;BME280;69591;53.282;6.150;2023-05-21T02:38:51;102206.59;;;18.21;56.18
62126;BME280;69591;53.282;6.150;2023-05-21T02:39:54;102211.72;;;18.23;56.07
62126;BME280;69591;53.282;6.150;2023-05-21T02:40:57;102208.97;;;18.23;56.04
62126;BME280;69591;53.282;6.150;2023-05-21T02:41:58;102217.97;;;18.23;55.94
62126;BME280;69591;53.282;6.150;2023-05-21T02:43:00;102219.09;;;18.22;56.07
62126;BME280;69591;53.282;6.150;2023-05-21T02:44:04;102213.63;;;18.22;56.21
62126;BME280;69591;53.282;6.150;2023-05-21T02:45:06;102214.81;;;18.21;56.10
62126;BME280;69591;53.282;6.150;2023-05-21T02:46:08;102213.63;;;18.22;56.30
62126;BME280;69591;53.282;6.150;2023-05-21T02:47:09;102210.91;;;18.22;56.27
62126;BME280;69591;53.282;6.150;2023-05-21T02:48:11;102208.97;;;18.23;56.26
62126;BME280;69591;53.282;6.150;2023-05-21T02:49:15;102204.31;;;18.23;56.11
62126;BME280;69591;53.282;6.150;2023-05-21T02:50:19;102208.19;;;18.22;55.85
62126;BME280;69591;53.282;6.150;2023-05-21T02:51:27;102207.41;;;18.22;56.21
62126;BME280;69591;53.282;6.150;2023-05-21T02:52:28;102208.19;;;18.22;56.03
62126;BME280;69591;53.282;6.150;2023-05-21T02:53:30;102202.72;;;18.22;56.23
62126;BME280;69591;53.282;6.150;2023-05-21T02:54:31;102208.97;;;18.23;56.22
62126;BME280;69591;53.282;6.150;2023-05-21T02:55:33;102201.06;;;18.18;56.15
62126;BME280;69591;53.282;6.150;2023-05-21T02:56:36;102206.25;;;18.23;56.02
62126;BME280;69591;53.282;6.150;2023-05-21T02:57:38;102208.97;;;18.23;56.34
62126;BME280;69591;53.282;6.150;2023-05-21T02:58:39;102210.13;;;18.22;56.06
62126;BME280;69591;53.282;6.150;2023-05-21T02:59:41;102213.63;;;18.22;56.09
62126;BME280;69591;53.282;6.150;2023-05-21T03:00:42;102208.19;;;18.22;56.10
62126;BME280;69591;53.282;6.150;2023-05-21T03:01:44;102206.59;;;18.21;56.12
62126;BME280;69591;53.282;6.150;2023-05-21T03:02:46;102199.97;;;18.22;56.22
62126;BME280;69591;53.282;6.150;2023-05-21T03:03:47;102198.03;;;18.23;56.16
62126;BME280;69591;53.282;6.150;2023-05-21T03:04:49;102202.72;;;18.22;56.12
62126;BME280;69591;53.282;6.150;2023-05-21T03:05:51;102203.50;;;18.23;56.23
62126;BME280;69591;53.282;6.150;2023-05-21T03:06:52;102202.72;;;18.22;56.26
62126;BME280;69591;53.282;6.150;2023-05-21T03:07:54;102202.72;;;18.22;56.29
62126;BME280;69591;53.282;6.150;2023-05-21T03:08:55;102197.25;;;18.22;56.26
62126;BME280;69591;53.282;6.150;2023-05-21T03:09:57;102208.97;;;18.23;56.32
62126;BME280;69591;53.282;6.150;2023-05-21T03:10:59;102203.50;;;18.23;56.16
62126;BME280;69591;53.282;6.150;2023-05-21T03:12:01;102202.72;;;18.22;56.23
62126;BME280;69591;53.282;6.150;2023-05-21T03:13:03;102197.25;;;18.22;56.25
62126;BME280;69591;53.282;6.150;2023-05-21T03:14:04;102202.72;;;18.22;56.25
62126;BME280;69591;53.282;6.150;2023-05-21T03:15:06;102192.94;;;18.21;56.33
62126;BME280;69591;53.282;6.150;2023-05-21T03:16:08;102198.41;;;18.21;56.24
62126;BME280;69591;53.282;6.150;2023-05-21T03:17:10;102193.38;;;18.23;56.17
62126;BME280;69591;53.282;6.150;2023-05-21T03:18:11;102186.31;;;18.22;56.12
62126;BME280;69591;53.282;6.150;2023-05-21T03:19:13;102199.97;;;18.22;56.10
62126;BME280;69591;53.282;6.150;2023-05-21T03:20:15;102185.53;;;18.22;56.04
62126;BME280;69591;53.282;6.150;2023-05-21T03:21:17;102195.66;;;18.21;56.16
62126;BME280;69591;53.282;6.150;2023-05-21T03:22:18;102185.53;;;18.22;56.22
62126;BME280;69591;53.282;6.150;2023-05-21T03:23:20;102180.06;;;18.22;56.22
62126;BME280;69591;53.282;6.150;2023-05-21T03:24:22;102188.25;;;18.22;56.49
62126;BME280;69591;53.282;6.150;2023-05-21T03:25:23;102184.38;;;18.23;56.42
62126;BME280;69591;53.282;6.150;2023-05-21T03:26:26;102182.00;;;18.21;56.25
62126;BME280;69591;53.282;6.150;2023-05-21T03:27:29;102187.47;;;18.21;56.35
62126;BME280;69591;53.282;6.150;2023-05-21T03:28:36;102191.00;;;18.22;56.30
62126;BME280;69591;53.282;6.150;2023-05-21T03:29:38;102185.53;;;18.22;56.35
62126;BME280;69591;53.282;6.150;2023-05-21T03:30:41;102191.00;;;18.22;56.25
62126;BME280;69591;53.282;6.150;2023-05-21T03:32:01;102196.47;;;18.22;56.23
62126;BME280;69591;53.282;6.150;2023-05-21T03:33:04;102191.78;;;18.22;56.38
62126;BME280;69591;53.282;6.150;2023-05-21T03:34:06;102186.31;;;18.22;56.33
62126;BME280;69591;53.282;6.150;2023-05-21T03:35:08;102185.53;;;18.22;56.53
62126;BME280;69591;53.282;6.150;2023-05-21T03:36:09;102194.50;;;18.22;56.22
62126;BME280;69591;53.282;6.150;2023-05-21T03:37:11;102186.31;;;18.22;56.33
62126;BME280;69591;53.282;6.150;2023-05-21T03:38:13;102188.25;;;18.22;56.35
62126;BME280;69591;53.282;6.150;2023-05-21T03:39:14;102184.72;;;18.21;56.24
62126;BME280;69591;53.282;6.150;2023-05-21T03:40:16;102179.25;;;18.21;56.38
62126;BME280;69591;53.282;6.150;2023-05-21T03:41:18;102180.84;;;18.22;56.29
62126;BME280;69591;53.282;6.150;2023-05-21T03:42:23;102187.47;;;18.21;56.44
62126;BME280;69591;53.282;6.150;2023-05-21T03:43:29;102176.97;;;18.23;56.45
62126;BME280;69591;53.282;6.150;2023-05-21T03:44:30;102180.84;;;18.22;56.51
62126;BME280;69591;53.282;6.150;2023-05-21T03:45:45;102180.06;;;18.22;56.44
62126;BME280;69591;53.282;6.150;2023-05-21T03:47:18;102176.53;;;18.21;56.23
62126;BME280;69591;53.282;6.150;2023-05-21T03:48:21;102183.94;;;18.21;56.43
62126;BME280;69591;53.282;6.150;2023-05-21T03:49:23;102186.31;;;18.22;56.36
62126;BME280;69591;53.282;6.150;2023-05-21T03:50:27;102185.53;;;18.22;56.40
62126;BME280;69591;53.282;6.150;2023-05-21T03:51:28;102190.19;;;18.21;56.31
62126;BME280;69591;53.282;6.150;2023-05-21T03:52:30;102189.03;;;18.22;56.16
62126;BME280;69591;53.282;6.150;2023-05-21T03:53:32;102184.72;;;18.21;56.26
62126;BME280;69591;53.282;6.150;2023-05-21T03:54:34;102185.53;;;18.22;56.26
62126;BME280;69591;53.282;6.150;2023-05-21T03:55:39;102180.84;;;18.22;56.44
62126;BME280;69591;53.282;6.150;2023-05-21T03:56:40;102186.31;;;18.22;56.45
62126;BME280;69591;53.282;6.150;2023-05-21T03:57:42;102189.03;;;18.22;56.26
62126;BME280;69591;53.282;6.150;2023-05-21T03:58:45;102182.00;;;18.21;56.41
62126;BME280;69591;53.282;6.150;2023-05-21T03:59:47;102185.53;;;18.22;56.33
62126;BME280;69591;53.282;6.150;2023-05-21T04:00:49;102182.78;;;18.22;56.43
62126;BME280;69591;53.282;6.150;2023-05-21T04:01:50;102185.53;;;18.22;56.36
62126;BME280;69591;53.282;6.150;2023-05-21T04:02:52;102194.09;;;18.20;56.35
62126;BME280;69591;53.282;6.150;2023-05-21T04:03:54;102188.25;;;18.22;56.44
62126;BME280;69591;53.282;6.150;2023-05-21T04:04:57;102189.03;;;18.22;56.34
62126;BME280;69591;53.282;6.150;2023-05-21T04:05:58;102191.00;;;18.22;56.42
62126;BME280;69591;53.282;6.150;2023-05-21T04:07:00;102189.03;;;18.22;56.25
62126;BME280;69591;53.282;6.150;2023-05-21T04:08:02;102187.47;;;18.21;56.37
62126;BME280;69591;53.282;6.150;2023-05-21T04:09:03;102190.19;;;18.21;56.42
62126;BME280;69591;53.282;6.150;2023-05-21T04:10:05;102192.56;;;18.23;56.27
62126;BME280;69591;53.282;6.150;2023-05-21T04:11:07;102190.19;;;18.21;56.43
62126;BME280;69591;53.282;6.150;2023-05-21T04:12:09;102193.72;;;18.22;56.22
62126;BME280;69591;53.282;6.150;2023-05-21T04:13:10;102184.72;;;18.21;56.45
62126;BME280;69591;53.282;6.150;2023-05-21T04:14:13;102180.84;;;18.22;56.42
62126;BME280;69591;53.282;6.150;2023-05-21T04:15:15;102186.31;;;18.22;56.26
62126;BME280;69591;53.282;6.150;2023-05-21T04:16:16;102191.78;;;18.22;56.44
62126;BME280;69591;53.282;6.150;2023-05-21T04:17:19;102187.47;;;18.21;56.40
62126;BME280;69591;53.282;6.150;2023-05-21T04:18:20;102190.19;;;18.21;56.65
62126;BME280;69591;53.282;6.150;2023-05-21T04:19:22;102182.28;;;18.16;56.22
62126;BME280;69591;53.282;6.150;2023-05-21T04:20:24;102193.72;;;18.22;56.42
62126;BME280;69591;53.282;6.150;2023-05-21T04:21:25;102190.19;;;18.21;56.45
62126;BME280;69591;53.282;6.150;2023-05-21T04:22:27;102197.25;;;18.22;56.49
62126;BME280;69591;53.282;6.150;2023-05-21T04:23:29;102194.50;;;18.22;56.45
62126;BME280;69591;53.282;6.150;2023-05-21T04:24:31;102189.84;;;18.23;56.46
62126;BME280;69591;53.282;6.150;2023-05-21T04:25:40;102202.72;;;18.22;56.38
62126;BME280;69591;53.282;6.150;2023-05-21T04:26:42;102197.25;;;18.22;56.31
62126;BME280;69591;53.282;6.150;2023-05-21T04:27:44;102197.25;;;18.22;56.45
62126;BME280;69591;53.282;6.150;2023-05-21T04:28:46;102196.47;;;18.22;56.47
62126;BME280;69591;53.282;6.150;2023-05-21T04:29:49;102197.25;;;18.22;56.43
62126;BME280;69591;53.282;6.150;2023-05-21T04:30:51;102199.97;;;18.22;56.45
62126;BME280;69591;53.282;6.150;2023-05-21T04:31:52;102197.25;;;18.22;56.25
62126;BME280;69591;53.282;6.150;2023-05-21T04:32:54;102201.13;;;18.21;56.41
62126;BME280;69591;53.282;6.150;2023-05-21T04:33:55;102197.25;;;18.22;56.29
62126;BME280;69591;53.282;6.150;2023-05-21T04:34:57;102199.97;;;18.22;56.60
62126;BME280;69591;53.282;6.150;2023-05-21T04:35:58;102198.84;;;18.23;56.30
62126;BME280;69591;53.282;6.150;2023-05-21T04:37:00;102199.97;;;18.22;56.31
62126;BME280;69591;53.282;6.150;2023-05-21T04:38:02;102194.50;;;18.22;56.34
62126;BME280;69591;53.282;6.150;2023-05-21T04:39:05;102196.47;;;18.22;56.34
62126;BME280;69591;53.282;6.150;2023-05-21T04:40:07;102196.47;;;18.22;56.49
62126;BME280;69591;53.282;6.150;2023-05-21T04:41:08;102195.66;;;18.21;56.54
62126;BME280;69591;53.282;6.150;2023-05-21T04:42:10;102196.47;;;18.22;56.44
62126;BME280;69591;53.282;6.150;2023-05-21T04:43:12;102201.94;;;18.22;56.38
62126;BME280;69591;53.282;6.150;2023-05-21T04:44:13;102202.72;;;18.22;56.49
62126;BME280;69591;53.282;6.150;2023-05-21T04:45:18;102189.03;;;18.22;56.51
62126;BME280;69591;53.282;6.150;2023-05-21T04:46:21;102191.78;;;18.22;56.58
62126;BME280;69591;53.282;6.150;2023-05-21T04:47:22;102189.03;;;18.22;56.49
62126;BME280;69591;53.282;6.150;2023-05-21T04:48:24;102197.25;;;18.22;56.45
62126;BME280;69591;53.282;6.150;2023-05-21T04:49:25;102191.78;;;18.22;56.51
62126;BME280;69591;53.282;6.150;2023-05-21T04:50:27;102186.31;;;18.22;56.52
62126;BME280;69591;53.282;6.150;2023-05-21T04:51:29;102186.31;;;18.22;56.52
62126;BME280;69591;53.282;6.150;2023-05-21T04:52:30;102191.78;;;18.22;56.39
62126;BME280;69591;53.282;6.150;2023-05-21T04:53:32;102187.91;;;18.23;56.37
62126;BME280;69591;53.282;6.150;2023-05-21T04:54:34;102184.38;;;18.23;56.50
62126;BME280;69591;53.282;6.150;2023-05-21T04:55:35;102184.38;;;18.23;56.42
62126;BME280;69591;53.282;6.150;2023-05-21T04:56:37;102182.44;;;18.23;56.52
62126;BME280;69591;53.282;6.150;2023-05-21T04:57:39;102185.16;;;18.23;56.50
62126;BME280;69591;53.282;6.150;2023-05-21T04:58:41;102182.44;;;18.23;56.49
62126;BME280;69591;53.282;6.150;2023-05-21T04:59:42;102181.63;;;18.23;56.42
62126;BME280;69591;53.282;6.150;2023-05-21T05:00:45;102187.09;;;18.23;56.23
62126;BME280;69591;53.282;6.150;2023-05-21T05:01:48;102200.78;;;18.23;56.35
62126;BME280;69591;53.282;6.150;2023-05-21T05:02:50;102193.38;;;18.23;56.38
62126;BME280;69591;53.282;6.150;2023-05-21T05:03:52;102191.78;;;18.22;56.45
62126;BME280;69591;53.282;6.150;2023-05-21T05:04:53;102193.38;;;18.23;56.48
62126;BME280;69591;53.282;6.150;2023-05-21T05:05:55;102193.38;;;18.23;56.51
62126;BME280;69591;53.282;6.150;2023-05-21T05:06:56;102198.84;;;18.23;56.37
62126;BME280;69591;53.282;6.150;2023-05-21T05:07:58;102198.84;;;18.23;56.39
62126;BME280;69591;53.282;6.150;2023-05-21T05:08:59;102192.56;;;18.23;56.38
62126;BME280;69591;53.282;6.150;2023-05-21T05:10:01;102198.03;;;18.23;56.53
62126;BME280;69591;53.282;6.150;2023-05-21T05:11:04;102201.56;;;18.23;56.24
62126;BME280;69591;53.282;6.150;2023-05-21T05:12:06;102198.84;;;18.23;56.45
62126;BME280;69591;53.282;6.150;2023-05-21T05:13:08;102201.56;;;18.23;56.31
62126;BME280;69591;53.282;6.150;2023-05-21T05:14:09;102200.41;;;18.24;56.52
62126;BME280;69591;53.282;6.150;2023-05-21T05:15:11;102202.34;;;18.24;56.44
62126;BME280;69591;53.282;6.150;2023-05-21T05:16:14;102201.56;;;18.23;56.44
62126;BME280;69591;53.282;6.150;2023-05-21T05:17:15;102199.63;;;18.24;56.52
62126;BME280;69591;53.282;6.150;2023-05-21T05:18:17;102201.56;;;18.23;56.46
62126;BME280;69591;53.282;6.150;2023-05-21T05:19:18;102201.56;;;18.23;56.52
62126;BME280;69591;53.282;6.150;2023-05-21T05:20:20;102197.69;;;18.24;56.59
62126;BME280;69591;53.282;6.150;2023-05-21T05:21:23;102190.63;;;18.23;56.46
62126;BME280;69591;53.282;6.150;2023-05-21T05:22:25;102199.63;;;18.24;56.58
62126;BME280;69591;53.282;6.150;2023-05-21T05:23:26;102194.94;;;18.24;56.28
62126;BME280;69591;53.282;6.150;2023-05-21T05:24:28;102192.22;;;18.24;56.66
62126;BME280;69591;53.282;6.150;2023-05-21T05:25:30;102190.28;;;18.25;56.52